Terminal Aerodrome Forecast
Issued by NWS El Paso, TX

Home | Current Version | Previous Version | Text Only | Print | Product List | Glossary On
Versions: 1 2 3 4 5 6 7 8 9 10 11 12 13 14
934
FTUS44 KEPZ 271136
TAFELP
TAF
KELP 271136Z 2712/2812 23008KT P6SM SKC
     FM271700 25015G25KT P6SM SKC
     FM272100 26019G31KT P6SM SKC
     FM280200 27014G26KT P6SM FEW250
     FM280400 28012KT P6SM FEW250=

USA.gov is the U.S. government's official web portal to all federal, state and local government web resources and services.